Time;durP1;ratioP1;P1;durP2;ratioP2;P2;SDS_P1;SDS_P2;PMS_P1;PMS_P2;Temp;Humidity;BMP_temperature;BMP_pressure;BME280_temperature;BME280_humidity;BME280_pressure;Samples;Min_cycle;Max_cycle;Signal;HPM_P1;HPM_P2
2021/09/02 02:47:50;;;;;;;8.65;4.18;;;10.90;99.90;;;;;;5239137;23;88713;-81
2021/09/02 02:50:16;;;;;;;9.35;4.18;;;10.90;99.90;;;;;;4955762;28;87411;-82
2021/09/02 02:52:41;;;;;;;9.80;4.05;;;10.90;99.90;;;;;;4946562;28;86548;-82
2021/09/02 02:55:08;;;;;;;8.23;4.45;;;10.90;99.90;;;;;;4965654;28;86946;-83
2021/09/02 02:57:33;;;;;;;9.73;3.65;;;10.90;99.90;;;;;;4951338;28;89571;-83
2021/09/02 02:59:59;;;;;;;8.27;4.28;;;10.90;99.90;;;;;;4966136;28;86759;-83
2021/09/02 03:02:25;;;;;;;8.65;4.10;;;10.80;99.90;;;;;;4960702;28;86722;-83
2021/09/02 03:04:50;;;;;;;8.55;4.05;;;10.80;99.90;;;;;;4948819;28;86890;-82
2021/09/02 03:07:16;;;;;;;8.25;4.22;;;10.80;99.90;;;;;;4959318;28;88372;-82
2021/09/02 03:09:42;;;;;;;7.53;3.83;;;10.80;99.90;;;;;;4949028;28;87647;-82
2021/09/02 03:12:08;;;;;;;7.53;3.78;;;10.80;99.90;;;;;;4948725;28;87103;-81
2021/09/02 03:14:33;;;;;;;9.23;4.28;;;10.80;99.90;;;;;;4950954;28;87064;-81
2021/09/02 03:16:59;;;;;;;8.38;3.50;;;10.70;99.90;;;;;;4964684;28;87123;-81
2021/09/02 03:19:25;;;;;;;8.75;4.53;;;10.70;99.90;;;;;;4946213;28;86923;-80
2021/09/02 03:21:50;;;;;;;8.98;3.78;;;10.70;99.90;;;;;;4955837;28;87072;-81
2021/09/02 03:24:16;;;;;;;8.30;4.15;;;10.70;99.90;;;;;;4953071;28;85549;-81
2021/09/02 03:26:42;;;;;;;7.60;4.22;;;10.70;99.90;;;;;;4952475;28;88639;-81
2021/09/02 03:29:07;;;;;;;7.05;3.47;;;10.70;99.90;;;;;;4946032;28;89036;-82
2021/09/02 03:31:33;;;;;;;8.02;4.03;;;10.70;99.90;;;;;;4947138;28;88611;-81
2021/09/02 03:33:59;;;;;;;8.55;3.35;;;10.70;99.90;;;;;;4958558;28;86677;-81
2021/09/02 03:36:24;;;;;;;7.25;3.75;;;10.70;99.90;;;;;;4950445;28;88636;-82
2021/09/02 03:38:50;;;;;;;7.82;3.40;;;10.60;99.90;;;;;;4949205;28;87197;-82
2021/09/02 03:41:15;;;;;;;7.55;3.42;;;10.60;99.90;;;;;;4950372;28;86904;-82
2021/09/02 03:43:41;;;;;;;7.18;3.17;;;10.60;99.90;;;;;;4949941;28;86878;-82
2021/09/02 03:46:07;;;;;;;9.15;3.22;;;10.70;99.90;;;;;;4949964;28;87884;-82
2021/09/02 03:48:32;;;;;;;7.53;3.67;;;10.60;99.90;;;;;;4947030;28;88053;-82
2021/09/02 03:50:58;;;;;;;8.68;3.65;;;10.60;99.90;;;;;;4936149;28;86818;-81
2021/09/02 03:53:24;;;;;;;8.45;3.53;;;10.60;99.90;;;;;;4940846;28;86742;-81
2021/09/02 03:55:49;;;;;;;7.30;3.15;;;10.50;99.90;;;;;;4946277;28;88537;-82
2021/09/02 03:58:15;;;;;;;7.15;3.95;;;10.50;99.90;;;;;;4949972;28;88137;-82
2021/09/02 04:00:41;;;;;;;7.55;3.55;;;10.50;99.90;;;;;;4948885;28;86896;-81
2021/09/02 04:03:06;;;;;;;8.73;3.55;;;10.50;99.90;;;;;;4940455;28;86854;-81
2021/09/02 04:05:32;;;;;;;10.88;4.20;;;10.50;99.90;;;;;;4950257;28;87952;-81
2021/09/02 04:07:58;;;;;;;8.73;4.10;;;10.40;99.90;;;;;;4934209;28;87295;-82
2021/09/02 04:10:24;;;;;;;7.85;4.20;;;10.40;99.90;;;;;;4940517;28;86595;-82
2021/09/02 04:12:49;;;;;;;10.65;4.10;;;10.40;99.90;;;;;;4949268;28;86520;-81
2021/09/02 04:15:15;;;;;;;10.25;3.80;;;10.40;99.90;;;;;;4945816;28;87800;-81
2021/09/02 04:17:41;;;;;;;6.78;3.60;;;10.40;99.90;;;;;;4943380;28;87928;-82
2021/09/02 04:20:07;;;;;;;10.32;3.92;;;10.40;99.90;;;;;;4930078;28;87748;-82
2021/09/02 04:22:33;;;;;;;8.48;4.28;;;10.40;99.90;;;;;;4948868;28;87039;-82
2021/09/02 04:24:58;;;;;;;7.95;4.10;;;10.40;99.90;;;;;;4939380;28;86758;-82
2021/09/02 04:27:24;;;;;;;7.57;3.88;;;10.40;99.90;;;;;;4930859;28;86742;-82
2021/09/02 04:29:50;;;;;;;9.10;3.92;;;10.30;99.90;;;;;;4930454;28;86862;-81
2021/09/02 04:32:15;;;;;;;9.55;4.32;;;10.30;99.90;;;;;;4930668;28;87735;-81
2021/09/02 04:34:41;;;;;;;7.82;3.63;;;10.30;99.90;;;;;;4929575;28;91203;-82
2021/09/02 04:37:07;;;;;;;8.45;3.80;;;10.30;99.90;;;;;;4955343;28;90861;-79
2021/09/02 04:39:33;;;;;;;7.20;3.70;;;10.30;99.90;;;;;;4945674;28;86723;-81
2021/09/02 04:41:59;;;;;;;7.32;3.70;;;10.30;99.90;;;;;;4930805;28;86835;-81
2021/09/02 04:44:25;;;;;;;8.95;4.28;;;10.30;99.90;;;;;;4934450;28;88659;-82
2021/09/02 04:46:50;;;;;;;8.57;4.40;;;10.30;99.90;;;;;;4928299;28;87847;-81
2021/09/02 04:49:16;;;;;;;9.20;4.18;;;10.40;99.90;;;;;;4935511;28;87113;-82
2021/09/02 04:51:42;;;;;;;11.38;4.68;;;10.50;99.90;;;;;;4937199;28;86290;-80
2021/09/02 04:54:07;;;;;;;9.88;4.55;;;10.50;99.90;;;;;;4935778;28;87920;-80
2021/09/02 04:56:33;;;;;;;8.70;4.60;;;10.50;99.90;;;;;;4942154;28;88173;-81
2021/09/02 04:58:59;;;;;;;11.32;4.50;;;10.60;99.90;;;;;;4936115;28;86922;-81
2021/09/02 05:01:24;;;;;;;8.25;3.83;;;10.80;99.90;;;;;;4940433;28;85945;-81
2021/09/02 05:03:50;;;;;;;8.52;4.40;;;11.20;99.90;;;;;;4940550;28;87325;-81
2021/09/02 05:06:16;;;;;;;9.82;4.00;;;11.80;99.90;;;;;;4942786;28;86845;-80
2021/09/02 05:08:41;;;;;;;7.88;3.45;;;12.50;99.90;;;;;;4937603;28;87926;-80
2021/09/02 05:11:07;;;;;;;10.18;3.45;;;13.20;99.90;;;;;;4937884;28;86945;-80
2021/09/02 05:13:33;;;;;;;7.78;3.08;;;13.80;99.90;;;;;;4930407;28;87723;-80
2021/09/02 05:15:58;;;;;;;7.65;3.15;;;14.70;99.90;;;;;;4929787;28;87393;-78
2021/09/02 05:18:24;;;;;;;8.32;3.28;;;15.50;99.90;;;;;;4939821;28;86502;-78
2021/09/02 05:20:50;;;;;;;5.57;2.92;;;16.40;99.90;;;;;;4932790;28;86906;-76
2021/09/02 05:23:15;;;;;;;7.38;2.30;;;17.60;95.00;;;;;;4937453;28;87796;-81
2021/09/02 05:25:41;;;;;;;7.90;2.58;;;18.70;91.70;;;;;;4937999;28;86406;-81
2021/09/02 05:28:07;;;;;;;4.65;1.95;;;19.80;84.50;;;;;;4930757;28;86404;-80
2021/09/02 05:30:32;;;;;;;8.43;2.17;;;20.50;73.50;;;;;;4931699;28;87073;-80
2021/09/02 05:32:58;;;;;;;6.07;2.15;;;20.50;74.30;;;;;;4933336;28;88696;-80
2021/09/02 05:35:24;;;;;;;6.30;2.30;;;21.10;71.50;;;;;;4934049;28;87735;-80
2021/09/02 05:37:50;;;;;;;5.50;2.05;;;21.50;69.30;;;;;;4936040;28;86748;-80
2021/09/02 05:40:15;;;;;;;4.85;1.83;;;22.30;65.70;;;;;;4930526;28;86537;-80
2021/09/02 05:42:41;;;;;;;3.45;1.80;;;22.70;63.00;;;;;;4933422;28;87677;-80
2021/09/02 05:45:08;;;;;;;3.70;2.13;;;23.50;61.10;;;;;;4942813;28;88306;-79
2021/09/02 05:47:34;;;;;;;6.97;2.42;;;24.30;59.10;;;;;;4935315;28;88627;-78
2021/09/02 05:50:01;;;;;;;3.42;1.85;;;25.00;58.50;;;;;;4930110;28;86247;-77
2021/09/02 05:52:26;;;;;;;6.80;2.17;;;25.60;54.70;;;;;;4928977;28;87052;-77
2021/09/02 05:54:54;;;;;;;4.25;1.95;;;26.80;55.10;;;;;;4928499;28;87455;-77
2021/09/02 05:57:23;;;;;;;3.92;2.13;;;27.80;53.80;;;;;;4936032;28;87875;-79
2021/09/02 05:59:49;;;;;;;6.82;2.25;;;28.90;48.60;;;;;;4929043;28;86890;-79
2021/09/02 06:02:14;;;;;;;5.60;2.90;;;29.00;46.20;;;;;;4938805;28;86877;-80
2021/09/02 06:04:40;;;;;;;7.78;3.00;;;29.00;46.30;;;;;;4943517;28;86744;-80
2021/09/02 06:07:06;;;;;;;5.60;2.60;;;29.30;46.40;;;;;;4936527;28;86965;-80
2021/09/02 06:09:32;;;;;;;5.00;3.00;;;29.00;46.20;;;;;;4930278;28;86773;-80
2021/09/02 06:11:57;;;;;;;5.85;2.70;;;29.40;46.60;;;;;;4932613;28;86932;-80
2021/09/02 06:14:23;;;;;;;4.57;2.50;;;30.20;45.40;;;;;;4928550;28;87385;-79
2021/09/02 06:16:49;;;;;;;4.78;2.33;;;31.10;44.70;;;;;;4932801;28;87155;-80
2021/09/02 06:19:15;;;;;;;4.00;2.40;;;32.00;42.70;;;;;;4933712;28;87098;-80
2021/09/02 06:21:40;;;;;;;6.70;2.70;;;32.40;41.40;;;;;;4938148;28;88355;-81
2021/09/02 06:24:06;;;;;;;7.38;3.13;;;33.10;41.70;;;;;;4927006;28;87324;-79
2021/09/02 06:26:32;;;;;;;6.00;2.72;;;33.80;40.60;;;;;;4926702;28;86904;-79
2021/09/02 06:28:57;;;;;;;4.88;2.75;;;34.40;39.80;;;;;;4924019;28;87016;-76
2021/09/02 06:31:23;;;;;;;5.38;3.22;;;35.10;37.50;;;;;;4922891;28;86984;-77
2021/09/02 06:33:49;;;;;;;4.32;2.40;;;35.60;37.70;;;;;;4930197;28;87195;-77
2021/09/02 06:36:14;;;;;;;5.47;2.58;;;36.00;36.50;;;;;;4931860;28;87511;-77
2021/09/02 06:38:40;;;;;;;5.15;2.60;;;36.10;36.60;;;;;;4922414;28;86833;-77
2021/09/02 06:41:06;;;;;;;5.70;2.28;;;36.50;35.80;;;;;;4937898;28;87683;-77
2021/09/02 06:43:32;;;;;;;5.30;2.53;;;35.50;36.20;;;;;;4936507;28;89044;-77
2021/09/02 06:45:57;;;;;;;4.93;2.58;;;35.70;37.20;;;;;;4931781;28;87878;-78
2021/09/02 06:48:23;;;;;;;8.40;2.60;;;36.70;35.90;;;;;;4936609;28;87226;-78
2021/09/02 06:50:49;;;;;;;5.07;3.17;;;38.00;34.30;;;;;;4940420;28;88920;-79
2021/09/02 06:53:14;;;;;;;3.88;2.67;;;38.40;33.90;;;;;;4936799;28;86957;-79
2021/09/02 06:55:40;;;;;;;5.97;2.95;;;38.70;32.50;;;;;;4932659;28;87015;-79
2021/09/02 06:58:05;;;;;;;4.53;2.78;;;38.80;32.80;;;;;;4934627;28;86989;-79
2021/09/02 07:00:31;;;;;;;3.78;2.75;;;39.40;32.70;;;;;;4943903;28;87525;-80
2021/09/02 07:02:57;;;;;;;5.47;2.75;;;39.60;32.60;;;;;;4942467;28;86743;-80
2021/09/02 07:05:23;;;;;;;4.20;2.65;;;40.80;32.00;;;;;;4932032;28;87089;-80
2021/09/02 07:07:49;;;;;;;7.93;2.65;;;40.60;32.00;;;;;;4938139;28;86925;-80
2021/09/02 07:10:14;;;;;;;4.15;2.65;;;41.30;30.00;;;;;;4941628;28;88652;-78
2021/09/02 07:12:40;;;;;;;5.25;2.92;;;41.30;30.20;;;;;;4930847;28;88335;-79
2021/09/02 07:15:07;;;;;;;7.65;4.03;;;41.60;30.40;;;;;;4940946;28;87770;-79
2021/09/02 07:17:32;;;;;;;5.10;3.78;;;41.50;30.10;;;;;;4940448;28;87036;-77
2021/09/02 07:19:59;;;;;;;5.25;3.28;;;41.50;30.90;;;;;;4938076;28;91357;-77
2021/09/02 07:22:25;;;;;;;4.90;3.45;;;41.80;29.60;;;;;;4936608;28;87234;-79
2021/09/02 07:24:51;;;;;;;4.13;3.08;;;40.60;30.50;;;;;;4942160;28;86895;-78
2021/09/02 07:27:17;;;;;;;4.22;2.72;;;41.40;30.00;;;;;;4931207;28;85762;-80
2021/09/02 07:29:43;;;;;;;5.22;3.35;;;41.10;30.60;;;;;;4942627;28;87960;-79
2021/09/02 07:32:09;;;;;;;5.72;3.60;;;41.50;30.10;;;;;;4936065;28;87126;-78
2021/09/02 07:34:34;;;;;;;4.13;3.22;;;42.00;29.90;;;;;;4939741;28;87880;-77
2021/09/02 07:37:01;;;;;;;4.95;3.25;;;42.40;29.90;;;;;;4933144;28;86920;-76
2021/09/02 07:39:27;;;;;;;5.00;3.08;;;43.70;29.90;;;;;;4940890;28;87358;-78
2021/09/02 07:41:53;;;;;;;6.72;3.67;;;44.20;28.90;;;;;;4939641;28;89861;-77
2021/09/02 07:44:20;;;;;;;4.82;3.63;;;44.70;29.00;;;;;;4931404;28;87502;-76
2021/09/02 07:46:46;;;;;;;7.25;3.90;;;45.30;29.10;;;;;;4936245;28;87080;-77
2021/09/02 07:49:12;;;;;;;6.43;3.78;;;46.10;28.00;;;;;;4937236;28;87336;-76
2021/09/02 07:51:37;;;;;;;4.85;3.70;;;46.00;28.10;;;;;;4927914;28;88402;-78
2021/09/02 07:54:03;;;;;;;5.97;3.88;;;46.20;27.60;;;;;;4933537;28;87047;-77
2021/09/02 07:56:29;;;;;;;4.78;3.67;;;46.00;28.60;;;;;;4939058;28;86597;-77
2021/09/02 07:58:55;;;;;;;5.18;3.75;;;46.40;28.00;;;;;;4939898;28;88118;-78
2021/09/02 08:01:22;;;;;;;4.75;3.42;;;46.50;27.50;;;;;;4934521;28;88094;-76
2021/09/02 08:03:49;;;;;;;6.75;5.10;;;45.80;28.20;;;;;;4940538;28;87709;-77
2021/09/02 08:06:15;;;;;;;7.50;4.40;;;46.30;28.30;;;;;;4931019;28;87328;-77
2021/09/02 08:08:41;;;;;;;7.78;4.70;;;47.00;28.30;;;;;;4927617;28;87238;-77
2021/09/02 08:11:06;;;;;;;8.02;4.22;;;47.20;27.60;;;;;;4930159;28;87956;-77
2021/09/02 08:13:32;;;;;;;7.72;4.75;;;47.80;27.60;;;;;;4939532;28;86958;-78
2021/09/02 08:15:58;;;;;;;6.35;5.75;;;48.50;27.50;;;;;;4935987;28;86500;-77
2021/09/02 08:18:24;;;;;;;6.05;4.82;;;48.90;27.00;;;;;;4929945;28;88219;-77
2021/09/02 08:20:49;;;;;;;6.65;4.05;;;49.50;26.70;;;;;;4938633;28;88065;-77
2021/09/02 08:23:15;;;;;;;5.43;4.28;;;49.50;26.70;;;;;;4939337;28;88255;-77
2021/09/02 08:25:41;;;;;;;6.78;4.82;;;49.40;27.00;;;;;;4929001;28;86884;-77
2021/09/02 08:28:07;;;;;;;7.30;4.82;;;50.20;26.70;;;;;;4938612;28;87449;-77
2021/09/02 08:30:33;;;;;;;6.93;4.32;;;50.70;26.20;;;;;;4931032;28;87134;-77
2021/09/02 08:32:59;;;;;;;7.00;4.28;;;51.30;26.20;;;;;;4939631;28;87361;-77
2021/09/02 08:35:28;;;;;;;8.30;5.30;;;51.20;25.80;;;;;;4938917;28;86961;-77
2021/09/02 08:37:57;;;;;;;5.85;4.22;;;51.90;25.90;;;;;;4933406;28;88555;-77
2021/09/02 08:40:25;;;;;;;6.75;4.85;;;52.60;25.90;;;;;;4927091;28;86938;-78
2021/09/02 08:42:54;;;;;;;9.80;4.18;;;52.20;25.70;;;;;;4926466;28;86994;-77
2021/09/02 08:45:20;;;;;;;10.38;7.88;;;51.80;26.10;;;;;;4927078;28;87008;-77
2021/09/02 08:47:47;;;;;;;8.93;5.38;;;51.80;25.50;;;;;;4929387;28;88553;-77
2021/09/02 08:50:16;;;;;;;6.53;4.53;;;52.10;25.50;;;;;;4933745;28;87738;-77
2021/09/02 08:52:42;;;;;;;6.18;4.57;;;52.90;25.80;;;;;;4939085;28;86969;-77
2021/09/02 08:55:09;;;;;;;5.90;5.15;;;53.20;25.10;;;;;;4934103;28;87168;-77
2021/09/02 08:57:35;;;;;;;7.15;5.38;;;53.00;25.50;;;;;;4937701;28;86995;-77
2021/09/02 09:00:01;;;;;;;6.07;4.93;;;53.30;25.50;;;;;;4926402;28;88118;-77
2021/09/02 09:02:30;;;;;;;7.25;6.55;;;53.10;25.30;;;;;;4938881;28;86925;-77
2021/09/02 09:05:00;;;;;;;6.38;5.75;;;52.60;25.70;;;;;;4932424;28;86338;-77
2021/09/02 09:07:31;;;;;;;7.13;5.63;;;52.80;25.70;;;;;;4936012;28;87218;-77
2021/09/02 09:09:57;;;;;;;5.93;4.65;;;53.00;25.40;;;;;;4942382;28;87031;-77
2021/09/02 09:12:33;;;;;;;5.70;5.10;;;52.30;25.40;;;;;;4922453;28;88032;-77
2021/09/02 09:14:59;;;;;;;7.72;5.43;;;53.20;25.40;;;;;;4938148;28;86993;-76
2021/09/02 09:17:25;;;;;;;7.13;6.15;;;53.70;25.30;;;;;;4936388;28;88657;-76
2021/09/02 09:19:52;;;;;;;6.53;5.88;;;54.50;25.10;;;;;;4936990;28;87169;-77
2021/09/02 09:22:23;;;;;;;6.80;5.95;;;54.40;24.90;;;;;;4936667;28;87551;-75
2021/09/02 09:24:53;;;;;;;5.85;4.82;;;54.30;25.00;;;;;;4933916;28;87136;-76
2021/09/02 09:27:38;;;;;;;6.60;5.63;;;54.30;25.10;;;;;;4934692;28;87631;-76
2021/09/02 09:30:38;;;;;;;5.90;5.30;;;54.50;24.50;;;;;;4937395;28;86384;-76
2021/09/02 09:33:07;;;;;;;7.05;6.10;;;54.60;24.90;;;;;;4923937;28;87074;-76
2021/09/02 09:35:36;;;;;;;5.88;5.28;;;54.30;25.20;;;;;;4935667;28;86977;-76
2021/09/02 09:38:15;;;;;;;9.55;6.97;;;54.00;25.00;;;;;;4936254;28;87974;-78
2021/09/02 09:40:52;;;;;;;8.95;6.25;;;53.90;25.20;;;;;;4936060;28;91271;-78
2021/09/02 09:43:22;;;;;;;6.60;4.85;;;54.80;25.20;;;;;;4938526;28;87012;-78
2021/09/02 09:45:57;;;;;;;9.10;6.22;;;55.80;25.20;;;;;;4936828;28;87137;-78
2021/09/02 09:48:22;;;;;;;8.20;6.80;;;56.20;24.60;;;;;;4926682;28;87337;-78
2021/09/02 09:51:07;;;;;;;8.30;7.20;;;56.40;24.40;;;;;;4935853;28;87798;-75
2021/09/02 09:53:33;;;;;;;7.18;6.47;;;54.90;24.90;;;;;;4931333;28;86926;-76
2021/09/02 09:55:59;;;;;;;8.07;6.78;;;53.40;25.90;;;;;;4932143;28;87170;-76
2021/09/02 09:58:27;;;;;;;9.23;6.03;;;52.80;25.80;;;;;;4931099;28;87354;-75
2021/09/02 10:00:58;;;;;;;8.77;7.90;;;52.90;25.90;;;;;;4936266;28;87927;-76
2021/09/02 10:03:25;;;;;;;8.40;6.18;;;53.10;25.60;;;;;;4934385;28;88046;-76
2021/09/02 10:05:51;;;;;;;6.80;6.00;;;52.50;26.00;;;;;;4934432;28;87480;-77
2021/09/02 10:08:19;;;;;;;9.32;7.50;;;52.10;26.00;;;;;;4929469;28;87604;-75
2021/09/02 10:10:47;;;;;;;8.93;6.30;;;51.90;26.20;;;;;;4927366;28;87343;-76
2021/09/02 10:13:13;;;;;;;;;;;51.00;26.50;;;;;;4937878;28;87041;-77
2021/09/02 10:15:39;;;;;;;8.63;6.95;;;51.00;26.80;;;;;;4939099;28;86983;-76
2021/09/02 10:18:05;;;;;;;10.80;6.32;;;49.90;26.70;;;;;;4936656;28;87482;-76
2021/09/02 10:20:37;;;;;;;6.75;5.30;;;47.50;26.90;;;;;;4936490;28;87292;-75
2021/09/02 10:23:04;;;;;;;7.35;5.47;;;43.70;28.70;;;;;;4930910;28;86552;-77
2021/09/02 10:25:33;;;;;;;8.50;6.00;;;39.10;32.80;;;;;;4946714;28;86940;-77
2021/09/02 10:28:03;;;;;;;7.25;5.07;;;35.60;36.40;;;;;;4935767;28;87919;-77
2021/09/02 10:30:30;;;;;;;11.82;8.07;;;32.60;42.10;;;;;;4940717;28;89534;-78
2021/09/02 10:32:58;;;;;;;8.65;5.22;;;30.00;45.40;;;;;;4941156;28;87057;-79
2021/09/02 10:35:26;;;;;;;6.15;4.10;;;28.10;48.60;;;;;;4932133;28;87061;-77
2021/09/02 10:37:53;;;;;;;6.38;3.90;;;26.60;50.50;;;;;;4933130;28;88551;-77
2021/09/02 10:40:19;;;;;;;5.70;3.60;;;26.00;52.30;;;;;;4928958;28;87446;-77
2021/09/02 10:42:46;;;;;;;7.55;3.72;;;25.20;54.80;;;;;;4934378;28;87170;-77
2021/09/02 10:45:28;;;;;;;5.90;2.92;;;24.70;56.60;;;;;;4938011;28;86024;-77
2021/09/02 10:47:55;;;;;;;8.32;3.25;;;24.70;57.60;;;;;;4933882;28;87385;-77
2021/09/02 10:50:27;;;;;;;5.88;3.53;;;25.10;57.00;;;;;;4932167;28;87386;-78
2021/09/02 10:52:52;;;;;;;5.72;3.15;;;25.20;55.30;;;;;;4931322;28;88405;-77
2021/09/02 10:55:33;;;;;;;6.03;3.15;;;24.90;55.90;;;;;;4932589;28;87043;-77
2021/09/02 10:58:01;;;;;;;6.43;3.05;;;24.40;57.30;;;;;;4924081;28;87274;-77
2021/09/02 11:06:58;;;;;;;6.82;2.80;;;24.30;59.20;;;;;;2504381;28;94303;-71
2021/09/02 11:09:38;;;;;;;7.82;3.63;;;24.20;60.70;;;;;;4955249;28;87063;-73
2021/09/02 11:12:09;;;;;;;4.93;3.03;;;24.20;58.60;;;;;;4950509;28;87058;-73
2021/09/02 11:14:45;;;;;;;5.68;2.95;;;24.10;58.80;;;;;;4948256;28;87368;-74
2021/09/02 11:17:12;;;;;;;5.35;3.08;;;24.00;60.60;;;;;;4944305;28;87054;-73
2021/09/02 11:19:40;;;;;;;5.95;2.70;;;23.70;62.00;;;;;;4953407;28;88098;-73
2021/09/02 11:22:12;;;;;;;5.53;3.05;;;23.60;63.70;;;;;;4951056;28;89091;-74
2021/09/02 11:24:48;;;;;;;6.50;3.20;;;23.60;62.20;;;;;;4950418;28;87373;-73
2021/09/02 11:27:34;;;;;;;4.78;3.03;;;23.50;61.80;;;;;;4951060;28;87153;-74
2021/09/02 11:30:27;;;;;;;5.93;3.45;;;23.70;62.60;;;;;;4951881;28;89458;-73
2021/09/02 11:33:02;;;;;;;6.90;3.42;;;23.70;63.20;;;;;;4954454;28;88103;-73
2021/09/02 11:35:28;;;;;;;6.10;3.17;;;23.60;63.50;;;;;;4952046;28;87077;-74
2021/09/02 11:37:55;;;;;;;6.88;3.17;;;23.80;65.10;;;;;;4951853;28;86232;-74
2021/09/02 11:40:30;;;;;;;5.38;2.95;;;24.10;62.90;;;;;;4951972;28;87071;-73
2021/09/02 11:42:57;;;;;;;8.90;3.63;;;24.10;64.20;;;;;;4947118;28;87032;-73
2021/09/02 11:45:25;;;;;;;8.23;3.20;;;23.90;62.50;;;;;;4952048;28;88138;-73
2021/09/02 11:47:52;;;;;;;5.47;2.90;;;23.80;64.90;;;;;;4953808;28;86945;-73
2021/09/02 11:50:19;;;;;;;6.45;2.92;;;23.80;63.60;;;;;;4952267;28;87705;-73
2021/09/02 11:52:48;;;;;;;5.13;2.85;;;24.00;63.00;;;;;;4955757;28;87100;-73
2021/09/02 11:55:25;;;;;;;5.05;2.88;;;24.10;64.80;;;;;;4956995;28;88842;-73
2021/09/02 11:57:55;;;;;;;6.60;3.17;;;24.00;63.30;;;;;;4952828;28;87312;-73
2021/09/02 12:00:21;;;;;;;5.55;2.83;;;23.80;62.80;;;;;;4951088;28;87438;-74
2021/09/02 12:02:52;;;;;;;6.38;3.13;;;23.80;64.80;;;;;;4955118;28;87464;-73
2021/09/02 12:05:26;;;;;;;5.13;2.75;;;23.90;64.40;;;;;;4955275;28;87154;-73
2021/09/02 12:07:54;;;;;;;7.65;2.80;;;23.90;63.70;;;;;;4955578;28;87019;-74
2021/09/02 12:10:21;;;;;;;5.53;3.03;;;23.80;63.60;;;;;;4954187;28;89310;-73
2021/09/02 12:12:47;;;;;;;5.43;2.92;;;23.80;62.40;;;;;;4956201;28;87811;-73
2021/09/02 12:15:26;;;;;;;5.45;2.65;;;23.90;63.90;;;;;;4952506;28;87164;-73
2021/09/02 12:18:11;;;;;;;5.68;2.90;;;24.20;63.80;;;;;;4956566;28;87362;-72
2021/09/02 12:20:39;;;;;;;4.80;2.70;;;24.20;61.70;;;;;;4955874;28;87909;-74
2021/09/02 12:23:19;;;;;;;5.78;2.90;;;24.20;64.60;;;;;;4963815;28;87515;-74
2021/09/02 12:26:00;;;;;;;4.30;2.83;;;24.10;63.30;;;;;;4953038;28;86964;-72
2021/09/02 12:28:34;;;;;;;4.57;2.60;;;23.90;65.60;;;;;;4959898;28;86394;-73
2021/09/02 12:31:14;;;;;;;5.53;3.03;;;24.00;65.30;;;;;;4955000;28;87101;-74
2021/09/02 12:34:02;;;;;;;6.43;2.90;;;24.10;63.70;;;;;;4954829;28;87012;-73
2021/09/02 12:36:33;;;;;;;5.03;2.70;;;24.10;64.60;;;;;;4952480;28;87943;-72
2021/09/02 12:39:11;;;;;;;6.00;2.95;;;24.10;64.40;;;;;;4956430;28;86886;-73
2021/09/02 12:41:41;;;;;;;5.28;3.10;;;23.90;64.80;;;;;;4955675;28;89234;-71
2021/09/02 12:44:12;;;;;;;6.63;3.17;;;24.00;65.00;;;;;;4956012;28;86831;-74
2021/09/02 12:46:55;;;;;;;5.03;2.90;;;24.20;65.70;;;;;;4943548;28;87045;-74
2021/09/02 12:49:48;;;;;;;4.32;2.65;;;24.20;65.30;;;;;;4950990;28;87146;-75
2021/09/02 12:52:19;;;;;;;5.88;3.35;;;24.20;65.00;;;;;;4946160;28;88386;-74
2021/09/02 12:55:18;;;;;;;5.85;2.95;;;24.20;65.10;;;;;;4955718;28;86840;-75
2021/09/02 12:57:43;;;;;;;7.65;3.05;;;24.20;66.90;;;;;;4922425;28;87244;-76
2021/09/02 13:00:33;;;;;;;5.22;3.15;;;24.20;64.60;;;;;;4958597;28;87348;-73
2021/09/02 13:03:03;;;;;;;5.40;2.85;;;24.10;65.90;;;;;;4953703;28;88171;-74
2021/09/02 13:05:30;;;;;;;6.80;2.83;;;24.10;67.10;;;;;;4953996;28;87351;-74
2021/09/02 13:08:00;;;;;;;5.82;3.10;;;24.10;67.20;;;;;;4958032;28;87217;-74
2021/09/02 13:10:29;;;;;;;7.72;3.03;;;24.20;64.10;;;;;;4954614;28;87065;-74
2021/09/02 13:12:55;;;;;;;8.48;3.25;;;24.30;63.90;;;;;;4956730;28;87286;-74
2021/09/02 13:15:21;;;;;;;5.47;2.67;;;24.30;65.40;;;;;;4957529;28;86985;-74
2021/09/02 13:17:48;;;;;;;5.85;2.83;;;24.10;64.70;;;;;;4954359;28;87171;-74
2021/09/02 13:20:14;;;;;;;5.40;2.42;;;24.20;64.50;;;;;;4957394;28;86802;-72
2021/09/02 13:22:41;;;;;;;6.47;2.55;;;24.30;64.30;;;;;;4951761;28;87716;-71
2021/09/02 13:25:08;;;;;;;6.28;2.33;;;24.40;64.80;;;;;;4947061;28;87519;-73
2021/09/02 13:27:34;;;;;;;6.60;3.00;;;24.20;62.70;;;;;;4945039;28;87928;-74
2021/09/02 13:30:01;;;;;;;5.15;2.70;;;24.00;63.50;;;;;;4943334;28;86958;-73
2021/09/02 13:32:27;;;;;;;5.25;2.63;;;23.80;63.40;;;;;;4956318;28;88129;-75
2021/09/02 13:34:52;;;;;;;4.03;2.50;;;23.90;63.00;;;;;;4952069;28;87999;-73
2021/09/02 13:37:18;;;;;;;5.13;3.28;;;23.90;64.60;;;;;;4956272;28;87437;-73
2021/09/02 13:39:44;;;;;;;6.40;3.05;;;23.90;65.50;;;;;;4942167;28;86781;-73
2021/09/02 13:42:11;;;;;;;6.68;2.60;;;23.90;64.60;;;;;;4944479;28;88309;-74
2021/09/02 13:44:37;;;;;;;4.72;2.65;;;23.90;64.60;;;;;;4955285;28;87539;-73
2021/09/02 13:47:03;;;;;;;4.05;2.15;;;24.00;64.20;;;;;;4944986;28;86888;-73
2021/09/02 13:49:28;;;;;;;3.83;2.42;;;23.90;62.90;;;;;;4952914;28;87052;-74
2021/09/02 13:51:55;;;;;;;5.13;2.60;;;23.90;64.30;;;;;;4955506;28;89172;-74
2021/09/02 13:54:21;;;;;;;5.70;2.97;;;23.80;64.80;;;;;;4955680;28;87919;-73
2021/09/02 13:56:46;;;;;;;7.22;3.67;;;23.70;67.40;;;;;;4955832;28;87062;-73
2021/09/02 13:59:13;;;;;;;6.50;3.15;;;23.90;67.20;;;;;;4952524;28;87652;-73
2021/09/02 14:01:40;;;;;;;5.80;2.42;;;23.90;66.40;;;;;;4955478;28;87392;-73
2021/09/02 14:04:07;;;;;;;5.05;2.90;;;24.00;66.10;;;;;;4955592;28;87424;-73
2021/09/02 14:06:33;;;;;;;4.28;2.58;;;24.10;65.30;;;;;;4955180;28;86991;-72
2021/09/02 14:08:59;;;;;;;3.92;2.55;;;24.00;62.90;;;;;;4955198;28;86797;-73
2021/09/02 14:11:24;;;;;;;8.23;3.30;;;23.90;64.40;;;;;;4949299;28;87464;-72
2021/09/02 14:13:50;;;;;;;4.07;2.30;;;23.90;63.70;;;;;;4954587;28;88016;-73
2021/09/02 14:16:16;;;;;;;4.00;2.22;;;23.80;64.90;;;;;;4952859;28;87720;-73
2021/09/02 14:18:42;;;;;;;5.05;2.33;;;23.80;65.60;;;;;;4954904;28;87016;-73
2021/09/02 14:21:07;;;;;;;5.28;2.80;;;23.90;64.90;;;;;;4957015;28;87683;-73
2021/09/02 14:23:34;;;;;;;4.57;2.25;;;24.00;64.40;;;;;;4954635;28;87063;-72
2021/09/02 14:25:59;;;;;;;5.07;2.85;;;24.00;64.10;;;;;;4955359;28;86896;-73
2021/09/02 14:28:25;;;;;;;5.15;2.30;;;24.10;64.10;;;;;;4955336;28;87080;-73
2021/09/02 14:30:51;;;;;;;4.47;2.53;;;24.20;63.60;;;;;;4955073;28;88334;-73
2021/09/02 14:33:18;;;;;;;4.57;2.38;;;24.00;63.90;;;;;;4954632;28;86497;-72
2021/09/02 14:35:44;;;;;;;6.30;2.75;;;23.90;63.80;;;;;;4955072;28;87139;-73
2021/09/02 14:38:10;;;;;;;4.97;2.28;;;23.80;64.60;;;;;;4955690;28;87521;-73
2021/09/02 14:40:36;;;;;;;6.28;2.42;;;23.90;64.50;;;;;;4954785;28;88744;-72
2021/09/02 14:43:02;;;;;;;4.95;2.60;;;23.90;64.30;;;;;;4954770;28;89058;-73
2021/09/02 14:45:28;;;;;;;5.68;2.30;;;23.90;64.40;;;;;;4951146;28;86817;-72
2021/09/02 14:47:54;;;;;;;4.20;2.13;;;23.80;64.70;;;;;;4954687;28;86896;-73
2021/09/02 14:50:20;;;;;;;4.18;2.30;;;23.80;64.90;;;;;;4955020;28;87538;-73
2021/09/02 14:52:46;;;;;;;4.47;2.50;;;23.90;65.40;;;;;;4954605;28;86986;-72
2021/09/02 14:55:11;;;;;;;4.40;2.25;;;23.90;63.60;;;;;;4955123;28;87054;-72
2021/09/02 14:57:37;;;;;;;5.18;2.42;;;24.00;63.20;;;;;;4954664;28;86314;-73
2021/09/02 15:00:04;;;;;;;5.25;2.65;;;23.90;63.40;;;;;;4946497;28;88203;-72
2021/09/02 15:02:30;;;;;;;4.35;2.25;;;23.80;64.90;;;;;;4953772;28;87343;-73
2021/09/02 15:04:56;;;;;;;4.45;2.75;;;23.90;64.70;;;;;;4954470;28;87596;-73
2021/09/02 15:07:23;;;;;;;5.45;2.47;;;23.90;65.10;;;;;;4954575;28;86983;-73
2021/09/02 15:09:49;;;;;;;3.90;2.63;;;24.00;63.50;;;;;;4954539;28;87924;-73
2021/09/02 15:12:15;;;;;;;4.18;2.25;;;24.00;65.70;;;;;;4952608;28;87091;-73
2021/09/02 15:14:41;;;;;;;3.95;2.22;;;24.00;65.30;;;;;;4948440;28;87067;-73
2021/09/02 15:17:06;;;;;;;5.57;2.47;;;24.00;64.90;;;;;;4954470;28;87117;-73
2021/09/02 15:19:32;;;;;;;5.18;2.45;;;24.00;64.80;;;;;;4954834;28;87728;-72
2021/09/02 15:21:58;;;;;;;5.88;2.45;;;23.90;63.50;;;;;;4949666;28;86380;-73
2021/09/02 15:24:24;;;;;;;6.18;2.17;;;23.80;62.90;;;;;;4949207;28;87055;-73
2021/09/02 15:26:49;;;;;;;4.65;1.95;;;23.70;63.60;;;;;;4954349;28;87253;-73
2021/09/02 16:27:18;;;;;;;8.20;2.38;;;22.90;63.90;;;;;;4939099;28;87297;-73
2021/09/02 16:29:44;;;;;;;4.90;2.50;;;22.90;64.50;;;;;;4953297;28;86952;-73
2021/09/02 16:32:11;;;;;;;5.35;2.25;;;22.80;64.60;;;;;;4951331;28;87140;-75
2021/09/02 16:34:36;;;;;;;4.15;2.08;;;22.70;64.40;;;;;;4962962;28;88832;-74
2021/09/02 16:37:11;;;;;;;4.97;2.15;;;22.70;64.60;;;;;;4957825;28;87090;-74
2021/09/02 16:39:39;;;;;;;3.90;2.25;;;22.60;65.50;;;;;;4970165;28;87010;-76
2021/09/02 16:42:05;;;;;;;3.80;2.13;;;22.50;66.00;;;;;;4959990;28;86882;-76